Time;durP1;ratioP1;P1;durP2;ratioP2;P2;SDS_P1;SDS_P2;PMS_P1;PMS_P2;Temp;Humidity;BMP_temperature;BMP_pressure;BME280_temperature;BME280_humidity;BME280_pressure;Samples;Min_cycle;Max_cycle;Signal;HPM_P1;HPM_P2
2023/11/07 00:02:48;;;;;;;0.00;0.00;;;;;;;5.45;100.00;99334.16;4985693;28;20381;-74
2023/11/07 00:05:14;;;;;;;0.00;0.00;;;;;;;5.47;100.00;99334.72;4949935;28;20613;-73
2023/11/07 00:07:41;;;;;;;0.00;0.00;;;;;;;5.54;100.00;99346.16;4958753;28;20030;-74
2023/11/07 00:10:07;;;;;;;0.00;0.00;;;;;;;5.44;100.00;99341.47;4960167;28;20125;-74
2023/11/07 00:12:42;;;;;;;0.00;0.00;;;;;;;5.46;100.00;99352.06;4984063;28;20030;-76
2023/11/07 00:15:08;;;;;;;0.00;0.00;;;;;;;5.39;100.00;99353.09;4975554;28;20088;-76
2023/11/07 00:17:36;;;;;;;0.00;0.00;;;;;;;5.36;100.00;99352.78;4968987;28;20035;-76
2023/11/07 00:20:01;;;;;;;0.00;0.00;;;;;;;5.35;100.00;99357.41;4957690;28;20365;-74
2023/11/07 00:22:27;;;;;;;0.00;0.00;;;;;;;5.18;100.00;99330.44;4966445;28;20519;-76
2023/11/07 00:24:53;;;;;;;0.00;0.00;;;;;;;5.19;100.00;99361.84;4957362;28;20125;-74
2023/11/07 00:27:18;;;;;;;0.00;0.00;;;;;;;5.13;100.00;99356.66;4936360;28;20034;-76
2023/11/07 00:29:47;;;;;;;0.00;0.00;;;;;;;5.07;100.00;99359.31;4981411;28;20025;-74
2023/11/07 00:32:13;;;;;;;0.00;0.00;;;;;;;5.00;100.00;99363.28;4973122;28;20029;-74
2023/11/07 00:34:40;;;;;;;0.00;0.00;;;;;;;4.94;100.00;99365.13;4965250;28;20026;-73
2023/11/07 00:37:06;;;;;;;0.00;0.00;;;;;;;4.88;100.00;99360.75;4972646;28;20454;-77
2023/11/07 00:39:31;;;;;;;0.00;0.00;;;;;;;4.91;100.00;99384.59;4986217;28;20116;-75
2023/11/07 00:41:57;;;;;;;0.00;0.00;;;;;;;4.91;100.00;99373.78;4960738;28;20026;-76
2023/11/07 00:44:23;;;;;;;0.00;0.00;;;;;;;4.82;100.00;99369.84;4955562;28;20034;-74
2023/11/07 00:46:48;;;;;;;0.10;0.10;;;;;;;4.79;100.00;99378.50;4951632;28;20034;-75
2023/11/07 00:49:14;;;;;;;0.00;0.00;;;;;;;4.72;100.00;99379.50;4962672;28;20030;-75
2023/11/07 00:51:39;;;;;;;0.00;0.00;;;;;;;4.61;100.00;99375.03;4964516;28;20018;-74
2023/11/07 00:54:05;;;;;;;0.00;0.00;;;;;;;4.57;100.00;99373.94;4936799;28;20029;-74
2023/11/07 00:56:31;;;;;;;0.00;0.00;;;;;;;4.54;100.00;99366.28;4954956;28;20062;-73
2023/11/07 00:58:57;;;;;;;0.00;0.00;;;;;;;4.53;100.00;99375.50;4963776;28;20018;-76
2023/11/07 01:01:22;;;;;;;0.00;0.00;;;;;;;4.46;100.00;99370.25;4972697;28;20081;-75
2023/11/07 01:03:48;;;;;;;0.00;0.00;;;;;;;4.34;100.00;99362.25;4935590;28;20034;-76
2023/11/07 01:06:13;;;;;;;0.00;0.00;;;;;;;4.42;100.00;99385.38;4947286;28;20041;-77
2023/11/07 01:08:38;;;;;;;0.00;0.00;;;;;;;4.27;100.00;99367.03;4988927;28;20030;-75
2023/11/07 01:11:05;;;;;;;0.00;0.00;;;;;;;4.28;100.00;99373.25;4964367;28;20073;-73
2023/11/07 01:13:31;;;;;;;0.00;0.00;;;;;;;4.28;100.00;99384.09;4958632;28;20038;-75
2023/11/07 01:15:56;;;;;;;0.00;0.00;;;;;;;4.30;100.00;99381.97;4954066;28;20502;-77
2023/11/07 01:18:22;;;;;;;0.00;0.00;;;;;;;4.41;100.00;99399.16;4948931;28;20033;-75
2023/11/07 01:20:48;;;;;;;0.00;0.00;;;;;;;4.40;100.00;99392.13;4968584;28;20038;-74
2023/11/07 01:23:13;;;;;;;0.00;0.00;;;;;;;4.27;100.00;99388.69;4967018;28;20026;-77
2023/11/07 01:25:40;;;;;;;0.00;0.00;;;;;;;4.26;100.00;99402.47;4957944;28;20022;-77
2023/11/07 01:28:06;;;;;;;0.00;0.00;;;;;;;4.14;100.00;99389.06;4985057;28;20180;-73
2023/11/07 01:30:31;;;;;;;0.00;0.00;;;;;;;4.16;100.00;99403.13;4949849;28;20057;-74
2023/11/07 01:32:57;;;;;;;0.10;0.10;;;;;;;4.14;100.00;99408.81;4950460;28;20129;-76
2023/11/07 01:35:23;;;;;;;0.00;0.00;;;;;;;4.02;100.00;99389.97;4940636;28;20037;-75
2023/11/07 01:37:48;;;;;;;0.00;0.00;;;;;;;4.06;100.00;99397.59;4949659;28;20034;-74
2023/11/07 01:40:14;;;;;;;0.00;0.00;;;;;;;3.97;100.00;99395.31;4955755;28;20112;-73
2023/11/07 01:42:48;;;;;;;0.00;0.00;;;;;;;3.95;100.00;99402.84;4964367;28;20088;-71
2023/11/07 01:45:14;;;;;;;0.00;0.00;;;;;;;3.96;100.00;99399.06;4985553;28;20762;-75
2023/11/07 01:47:42;;;;;;;0.00;0.00;;;;;;;3.93;100.00;99385.22;4938598;28;20033;-75
2023/11/07 01:50:10;;;;;;;0.00;0.00;;;;;;;4.05;100.00;99402.19;4971282;28;20022;-75
2023/11/07 01:52:36;;;;;;;0.00;0.00;;;;;;;4.01;100.00;99396.44;4970028;28;20026;-75
2023/11/07 01:55:02;;;;;;;0.00;0.00;;;;;;;4.00;100.00;99400.22;4971324;28;20026;-75
2023/11/07 01:57:28;;;;;;;0.00;0.00;;;;;;;4.10;100.00;99399.53;4978273;28;20026;-74
2023/11/07 01:59:54;;;;;;;0.00;0.00;;;;;;;4.21;100.00;99388.88;4955224;28;20034;-76
2023/11/07 02:02:22;;;;;;;0.00;0.00;;;;;;;4.31;100.00;99389.84;4964070;28;20042;-74
2023/11/07 02:04:48;;;;;;;0.10;0.10;;;;;;;4.41;100.00;99400.00;4956861;28;20022;-75
2023/11/07 02:07:13;;;;;;;0.00;0.00;;;;;;;4.46;100.00;99396.53;4956652;28;20042;-73
2023/11/07 02:09:41;;;;;;;0.10;0.10;;;;;;;4.61;100.00;99398.59;4952770;28;20050;-73
2023/11/07 02:12:08;;;;;;;0.00;0.00;;;;;;;4.47;100.00;99381.94;4972297;28;20034;-74
2023/11/07 02:14:35;;;;;;;0.00;0.00;;;;;;;4.60;100.00;99413.22;4971935;28;20023;-76
2023/11/07 02:17:01;;;;;;;0.00;0.00;;;;;;;4.54;100.00;99409.59;4975567;28;20034;-73
2023/11/07 02:19:27;;;;;;;0.00;0.00;;;;;;;4.57;100.00;99419.13;4967671;28;20026;-74
2023/11/07 02:21:57;;;;;;;0.10;0.10;;;;;;;4.54;100.00;99420.44;4978464;28;20093;-75
2023/11/07 02:24:23;;;;;;;0.00;0.00;;;;;;;4.48;100.00;99418.75;4977828;28;20638;-75
2023/11/07 02:26:53;;;;;;;0.00;0.00;;;;;;;4.48;100.00;99416.03;4974259;28;20105;-76
2023/11/07 02:29:21;;;;;;;0.10;0.10;;;;;;;4.54;100.00;99420.44;4964902;28;20026;-73
2023/11/07 02:31:47;;;;;;;0.00;0.00;;;;;;;4.61;100.00;99420.28;4953542;28;20053;-73
2023/11/07 02:34:12;;;;;;;0.10;0.10;;;;;;;4.63;100.00;99413.53;4956902;28;20061;-75
2023/11/07 02:36:38;;;;;;;0.00;0.00;;;;;;;4.61;100.00;99415.66;4951471;28;20424;-76
2023/11/07 02:39:05;;;;;;;0.10;0.10;;;;;;;4.55;100.00;99409.34;4976717;28;20139;-75
2023/11/07 02:41:32;;;;;;;0.00;0.00;;;;;;;4.60;100.00;99430.28;4934247;28;20042;-73
2023/11/07 02:43:57;;;;;;;0.00;0.00;;;;;;;4.59;100.00;99422.41;4971812;28;20433;-73
2023/11/07 02:46:22;;;;;;;0.00;0.00;;;;;;;4.68;100.00;99427.13;4965408;28;20122;-74
2023/11/07 02:48:48;;;;;;;0.00;0.00;;;;;;;4.67;100.00;99425.50;4950737;28;20037;-75
2023/11/07 02:51:17;;;;;;;0.00;0.00;;;;;;;4.74;100.00;99429.91;4952691;28;20471;-76
2023/11/07 02:53:44;;;;;;;0.00;0.00;;;;;;;4.74;100.00;99429.91;4955095;28;20457;-76
2023/11/07 02:56:10;;;;;;;0.00;0.00;;;;;;;4.79;100.00;99427.25;4954059;28;20034;-76
2023/11/07 02:58:36;;;;;;;0.10;0.10;;;;;;;4.72;100.00;99422.84;4961447;28;20041;-76
2023/11/07 03:01:02;;;;;;;0.00;0.00;;;;;;;4.79;100.00;99427.25;4970600;28;20038;-76
2023/11/07 03:03:28;;;;;;;0.00;0.00;;;;;;;4.78;100.00;99428.34;4951635;28;20035;-77
2023/11/07 03:05:54;;;;;;;0.00;0.00;;;;;;;4.68;100.00;99416.28;4984874;28;20094;-77
2023/11/07 03:08:19;;;;;;;0.00;0.00;;;;;;;4.68;100.00;99421.72;4973569;28;20124;-75
2023/11/07 03:10:45;;;;;;;0.00;0.00;;;;;;;4.66;100.00;99428.47;4965119;28;20411;-76
2023/11/07 03:13:12;;;;;;;0.00;0.00;;;;;;;4.66;100.00;99423.88;4953146;28;20088;-74
2023/11/07 03:15:38;;;;;;;0.00;0.00;;;;;;;4.70;100.00;99432.28;4935870;28;20042;-77
2023/11/07 03:18:04;;;;;;;0.10;0.10;;;;;;;4.44;100.00;99390.53;4968208;28;20045;-77
2023/11/07 03:20:29;;;;;;;0.00;0.00;;;;;;;4.63;100.00;99410.81;4948953;28;20026;-77
2023/11/07 03:22:55;;;;;;;0.00;0.00;;;;;;;4.70;100.00;99422.28;4951454;28;20034;-73
2023/11/07 03:25:20;;;;;;;0.00;0.00;;;;;;;4.59;100.00;99414.28;4962754;28;20030;-74
2023/11/07 03:27:45;;;;;;;0.00;0.00;;;;;;;4.61;100.00;99437.31;4947730;28;20439;-74
2023/11/07 03:30:17;;;;;;;0.00;0.00;;;;;;;4.52;100.00;99430.72;4962306;28;20464;-75
2023/11/07 03:32:45;;;;;;;0.00;0.00;;;;;;;4.48;100.00;99437.69;4946460;28;20030;-76
2023/11/07 03:35:11;;;;;;;0.00;0.00;;;;;;;4.42;100.00;99438.69;4946602;28;20544;-76
2023/11/07 03:37:38;;;;;;;0.00;0.00;;;;;;;4.39;100.00;99433.78;4945691;28;20027;-76
2023/11/07 03:40:05;;;;;;;0.00;0.00;;;;;;;4.35;100.00;99436.16;4940617;28;20427;-75
2023/11/07 03:42:30;;;;;;;0.00;0.00;;;;;;;4.40;100.00;99435.44;4949054;28;20038;-76
2023/11/07 03:44:56;;;;;;;0.00;0.00;;;;;;;4.39;100.00;99428.38;4963397;28;20026;-76
2023/11/07 03:47:22;;;;;;;0.00;0.00;;;;;;;4.43;100.00;99434.94;4945534;28;20035;-76
2023/11/07 03:49:47;;;;;;;0.00;0.00;;;;;;;4.54;100.00;99436.69;4949138;28;20022;-75
2023/11/07 03:52:12;;;;;;;0.00;0.00;;;;;;;4.54;100.00;99442.09;4963629;28;20028;-73
2023/11/07 03:54:38;;;;;;;0.00;0.00;;;;;;;4.57;100.00;99447.03;4970020;28;20415;-75
2023/11/07 03:57:04;;;;;;;0.00;0.00;;;;;;;4.52;100.00;99450.47;4959193;28;20034;-75
2023/11/07 03:59:29;;;;;;;0.00;0.00;;;;;;;4.44;100.00;99444.66;4951450;28;20058;-73
2023/11/07 04:01:55;;;;;;;0.00;0.00;;;;;;;4.46;100.00;99448.78;4943533;28;20050;-74
2023/11/07 04:04:21;;;;;;;0.00;0.00;;;;;;;4.42;100.00;99449.53;4953578;28;20027;-74
2023/11/07 04:06:48;;;;;;;0.05;0.05;;;;;;;4.39;100.00;99441.91;4951133;28;20034;-73
2023/11/07 04:09:13;;;;;;;0.00;0.00;;;;;;;4.33;100.00;99431.00;4936403;28;20028;-74
2023/11/07 04:11:39;;;;;;;0.00;0.00;;;;;;;4.32;100.00;99442.91;4987825;28;20022;-75
2023/11/07 04:14:05;;;;;;;0.00;0.00;;;;;;;4.29;100.00;99438.00;4983407;28;20104;-75
2023/11/07 04:16:31;;;;;;;0.00;0.00;;;;;;;4.27;100.00;99442.81;4937624;28;20064;-74
2023/11/07 04:18:57;;;;;;;0.05;0.05;;;;;;;4.22;100.00;99431.09;4965656;28;20525;-73
2023/11/07 04:21:22;;;;;;;0.00;0.00;;;;;;;4.25;100.00;99434.13;4949822;28;20611;-75
2023/11/07 04:23:47;;;;;;;0.00;0.00;;;;;;;4.28;100.00;99444.47;4943516;28;20066;-74
2023/11/07 04:26:13;;;;;;;0.00;0.00;;;;;;;4.31;100.00;99437.75;4982626;28;20466;-75
2023/11/07 04:28:39;;;;;;;0.00;0.00;;;;;;;4.25;100.00;99422.47;4955661;28;20117;-74
2023/11/07 04:31:05;;;;;;;0.00;0.00;;;;;;;4.29;100.00;99438.00;4950384;28;20034;-74
2023/11/07 04:33:33;;;;;;;0.00;0.00;;;;;;;4.24;100.00;99437.91;4960350;28;20034;-74
2023/11/07 04:35:59;;;;;;;0.10;0.10;;;;;;;4.14;100.00;99448.59;4985751;28;20046;-73
2023/11/07 04:38:26;;;;;;;0.00;0.00;;;;;;;4.05;100.00;99433.84;4970483;28;20030;-75
2023/11/07 04:40:51;;;;;;;0.00;0.00;;;;;;;4.04;100.00;99435.72;4951907;28;20039;-75
2023/11/07 04:43:17;;;;;;;0.00;0.00;;;;;;;4.07;100.00;99445.22;4949813;28;20620;-74
2023/11/07 04:45:43;;;;;;;0.00;0.00;;;;;;;4.06;100.00;99439.00;4969943;28;20383;-74
2023/11/07 04:48:11;;;;;;;0.08;0.08;;;;;;;4.01;100.00;99434.31;4953710;28;20030;-74
2023/11/07 04:50:39;;;;;;;0.00;0.00;;;;;;;3.98;100.00;99440.22;4948708;28;20034;-74
2023/11/07 04:53:05;;;;;;;0.00;0.00;;;;;;;3.97;100.00;99441.31;4965900;28;20041;-74
2023/11/07 04:55:33;;;;;;;0.00;0.00;;;;;;;4.00;100.00;99454.34;4983647;28;20106;-74
2023/11/07 04:58:00;;;;;;;0.00;0.00;;;;;;;3.98;100.00;99445.63;4932437;28;20477;-74
2023/11/07 05:00:26;;;;;;;0.00;0.00;;;;;;;4.04;100.00;99461.94;4953307;28;20046;-74
2023/11/07 05:02:51;;;;;;;0.00;0.00;;;;;;;4.05;100.00;99460.91;4985784;28;20026;-74
2023/11/07 05:05:17;;;;;;;0.00;0.00;;;;;;;4.15;100.00;99471.88;4939653;28;20023;-76
2023/11/07 05:07:45;;;;;;;0.00;0.00;;;;;;;4.14;100.00;99459.41;4948991;28;20119;-76
2023/11/07 05:10:11;;;;;;;0.00;0.00;;;;;;;4.24;100.00;99464.16;4937941;28;20043;-76
2023/11/07 05:12:37;;;;;;;0.00;0.00;;;;;;;4.36;100.00;99473.81;4983492;28;20027;-76
2023/11/07 05:15:04;;;;;;;0.00;0.00;;;;;;;4.40;100.00;99468.72;4971864;28;20038;-75
2023/11/07 05:17:29;;;;;;;0.00;0.00;;;;;;;4.47;100.00;99479.38;4968430;28;20061;-76
2023/11/07 05:19:55;;;;;;;0.00;0.00;;;;;;;4.47;100.00;99473.97;4992927;28;20022;-76
2023/11/07 05:22:20;;;;;;;0.00;0.00;;;;;;;4.49;100.00;99479.94;4962138;28;20026;-76
2023/11/07 05:24:46;;;;;;;0.00;0.00;;;;;;;4.54;100.00;99478.13;4951601;28;20026;-75
2023/11/07 05:27:11;;;;;;;0.00;0.00;;;;;;;4.58;100.00;99470.31;4964904;28;20120;-76
2023/11/07 05:29:48;;;;;;;0.00;0.00;;;;;;;4.66;100.00;99467.19;4959590;28;20037;-76
2023/11/07 05:32:20;;;;;;;0.00;0.00;;;;;;;4.76;100.00;99479.22;4968457;28;20030;-76
2023/11/07 05:34:48;;;;;;;0.00;0.00;;;;;;;4.82;100.00;99475.50;4953977;28;20033;-74
2023/11/07 05:37:14;;;;;;;0.00;0.00;;;;;;;4.94;100.00;99484.34;4972703;28;20034;-75
2023/11/07 05:39:39;;;;;;;0.00;0.00;;;;;;;5.04;100.00;99491.78;4957440;28;20038;-75
2023/11/07 05:42:06;;;;;;;0.00;0.00;;;;;;;5.09;100.00;99488.31;4953532;28;20041;-75
2023/11/07 05:44:32;;;;;;;0.00;0.00;;;;;;;5.04;100.00;99479.06;4985787;28;20030;-75
2023/11/07 05:46:57;;;;;;;0.00;0.00;;;;;;;5.07;100.00;99481.25;4954830;28;20034;-73
2023/11/07 05:49:23;;;;;;;0.00;0.00;;;;;;;5.09;100.00;99485.59;4955503;28;20125;-75
2023/11/07 05:51:49;;;;;;;0.00;0.00;;;;;;;5.03;100.00;99477.41;4967393;28;20069;-75
2023/11/07 05:54:15;;;;;;;0.00;0.00;;;;;;;5.04;100.00;99486.38;4947131;28;20042;-74
2023/11/07 05:56:40;;;;;;;0.00;0.00;;;;;;;5.00;100.00;99499.59;4965178;28;20597;-75
2023/11/07 05:59:07;;;;;;;0.00;0.00;;;;;;;4.89;100.00;99482.41;4963906;28;20041;-76
2023/11/07 06:01:36;;;;;;;0.00;0.00;;;;;;;4.88;100.00;99488.06;4949422;28;20547;-77
2023/11/07 06:04:03;;;;;;;0.00;0.00;;;;;;;4.82;100.00;99491.75;4974464;28;20038;-75
2023/11/07 06:06:28;;;;;;;0.00;0.00;;;;;;;4.72;100.00;99498.69;4969461;28;20137;-75
2023/11/07 06:08:53;;;;;;;0.00;0.00;;;;;;;4.65;100.00;99494.53;4967613;28;20912;-75
2023/11/07 06:11:19;;;;;;;0.00;0.00;;;;;;;4.57;100.00;99501.19;4936168;28;20101;-74
2023/11/07 06:13:44;;;;;;;0.00;0.00;;;;;;;4.49;100.00;99498.91;4949239;28;20052;-74
2023/11/07 06:16:10;;;;;;;0.00;0.00;;;;;;;4.45;100.00;99503.16;4952935;28;20034;-75
2023/11/07 06:18:35;;;;;;;0.00;0.00;;;;;;;4.35;100.00;99491.13;4965961;28;20377;-75
2023/11/07 06:21:00;;;;;;;0.00;0.00;;;;;;;4.39;100.00;99510.38;4956322;28;20035;-77
2023/11/07 06:23:26;;;;;;;0.00;0.00;;;;;;;4.21;100.00;99497.13;4970441;28;20061;-76
2023/11/07 06:25:51;;;;;;;0.10;0.10;;;;;;;4.10;100.00;99496.13;4955459;28;20054;-75
2023/11/07 06:28:17;;;;;;;0.00;0.00;;;;;;;4.11;100.00;99498.59;4950759;28;20686;-76
2023/11/07 06:30:43;;;;;;;0.00;0.00;;;;;;;3.99;100.00;99503.28;4981993;28;20037;-74
2023/11/07 06:33:09;;;;;;;0.00;0.00;;;;;;;3.94;100.00;99504.00;4967960;28;20026;-75
2023/11/07 06:35:35;;;;;;;0.00;0.00;;;;;;;3.96;100.00;99499.16;4967324;28;20014;-75
2023/11/07 06:38:00;;;;;;;0.10;0.10;;;;;;;4.08;100.00;99509.09;4955875;28;20400;-74
2023/11/07 06:40:26;;;;;;;0.08;0.08;;;;;;;4.13;100.00;99517.28;4953371;28;20069;-74
2023/11/07 06:42:52;;;;;;;0.00;0.00;;;;;;;4.19;100.00;99500.91;4951640;28;20030;-74
2023/11/07 06:45:18;;;;;;;0.00;0.00;;;;;;;4.24;100.00;99508.28;4968608;28;20113;-74
2023/11/07 06:47:46;;;;;;;0.00;0.00;;;;;;;4.23;100.00;99512.03;4983384;28;20552;-74
2023/11/07 06:50:13;;;;;;;0.00;0.00;;;;;;;4.21;100.00;99516.88;4966739;28;20046;-74
2023/11/07 06:52:48;;;;;;;0.00;0.00;;;;;;;4.15;100.00;99509.75;4966026;28;21709;-76
2023/11/07 06:55:14;;;;;;;0.00;0.00;;;;;;;4.21;100.00;99518.78;4967728;28;20034;-75
2023/11/07 06:57:41;;;;;;;0.00;0.00;;;;;;;4.13;100.00;99517.28;4954106;28;20480;-73
2023/11/07 07:00:08;;;;;;;0.00;0.00;;;;;;;4.15;100.00;99532.22;4964468;28;20036;-74
2023/11/07 07:02:35;;;;;;;0.00;0.00;;;;;;;3.99;100.00;99517.59;4955222;28;20376;-74
2023/11/07 07:05:01;;;;;;;0.00;0.00;;;;;;;4.10;100.00;99528.59;4966860;28;20037;-76
2023/11/07 07:07:26;;;;;;;0.00;0.00;;;;;;;4.01;100.00;99520.06;4968379;28;20035;-75
2023/11/07 07:09:52;;;;;;;0.10;0.10;;;;;;;3.99;100.00;99528.44;4970859;28;20094;-77
2023/11/07 07:12:21;;;;;;;0.00;0.00;;;;;;;4.05;100.00;99552.88;4981924;28;20080;-76
2023/11/07 07:14:46;;;;;;;0.00;0.00;;;;;;;4.00;100.00;99562.53;4954781;28;20118;-72
2023/11/07 07:17:14;;;;;;;0.00;0.00;;;;;;;3.90;100.00;99538.03;4957525;28;20690;-72
2023/11/07 07:19:41;;;;;;;0.00;0.00;;;;;;;4.08;100.00;99557.81;4967580;28;20042;-73
2023/11/07 07:22:07;;;;;;;0.00;0.00;;;;;;;4.10;100.00;99571.91;4974941;28;20371;-77
2023/11/07 07:24:32;;;;;;;0.00;0.00;;;;;;;4.12;100.00;99569.78;4974983;28;20041;-73
2023/11/07 07:26:58;;;;;;;0.00;0.00;;;;;;;4.19;100.00;99575.84;4965660;28;20061;-75
2023/11/07 07:29:27;;;;;;;0.00;0.00;;;;;;;4.24;100.00;99575.94;4952616;28;20027;-73
2023/11/07 07:31:53;;;;;;;0.00;0.00;;;;;;;4.28;100.00;99574.38;4958381;28;20395;-72
2023/11/07 07:34:21;;;;;;;0.00;0.00;;;;;;;4.30;100.00;99572.25;4954676;28;20037;-75
2023/11/07 07:36:47;;;;;;;0.00;0.00;;;;;;;4.32;100.00;99575.53;4970542;28;20106;-75
2023/11/07 07:39:29;;;;;;;0.00;0.00;;;;;;;4.25;100.00;99566.75;4952946;28;20038;-72
2023/11/07 07:41:56;;;;;;;0.00;0.00;;;;;;;4.40;100.00;99587.03;4970293;28;20022;-73
2023/11/07 07:44:25;;;;;;;0.00;0.00;;;;;;;4.46;100.00;99588.75;4936917;28;20486;-76
2023/11/07 07:46:52;;;;;;;0.00;0.00;;;;;;;4.48;100.00;99583.88;4959158;28;20057;-75
2023/11/07 07:49:22;;;;;;;0.00;0.00;;;;;;;4.57;100.00;99587.00;4968779;28;21043;-75
2023/11/07 07:51:55;;;;;;;0.00;0.00;;;;;;;4.65;100.00;99592.81;4942372;28;20027;-75
2023/11/07 07:54:24;;;;;;;0.00;0.00;;;;;;;4.70;100.00;99587.50;4982031;28;20117;-75
2023/11/07 07:56:56;;;;;;;0.00;0.00;;;;;;;4.75;100.00;99573.22;4968475;28;20034;-75
2023/11/07 07:59:24;;;;;;;0.08;0.08;;;;;;;4.87;100.00;99586.66;4971365;28;20125;-75
2023/11/07 08:01:57;;;;;;;0.00;0.00;;;;;;;4.94;100.00;99592.72;4982890;28;20046;-75
2023/11/07 08:04:28;;;;;;;0.00;0.00;;;;;;;5.09;100.00;99599.44;4968810;28;20054;-75
2023/11/07 08:06:54;;;;;;;0.00;0.00;;;;;;;5.14;100.00;99594.91;4950377;28;20098;-75
2023/11/07 08:09:19;;;;;;;0.00;0.00;;;;;;;5.22;100.00;99599.06;4968292;28;20026;-75
2023/11/07 08:11:56;;;;;;;0.00;0.00;;;;;;;5.36;100.00;99611.19;4948975;28;20568;-74
2023/11/07 08:14:22;;;;;;;0.00;0.00;;;;;;;5.49;100.00;99606.44;4956002;28;20489;-75
2023/11/07 08:16:50;;;;;;;0.00;0.00;;;;;;;5.63;100.00;99620.47;4971357;28;21556;-75
2023/11/07 08:19:17;;;;;;;0.00;0.00;;;;;;;5.68;100.00;99610.50;4989236;28;20057;-75
2023/11/07 08:21:43;;;;;;;0.00;0.00;;;;;;;5.77;100.00;99613.56;4966965;28;20130;-74
2023/11/07 08:24:12;;;;;;;0.00;0.00;;;;;;;5.94;100.00;99621.59;4968499;28;20030;-76
2023/11/07 08:26:38;;;;;;;0.00;0.00;;;;;;;6.00;100.00;99617.94;4983167;28;20054;-76
2023/11/07 08:29:06;;;;;;;0.00;0.00;;;;;;;6.95;100.00;99624.69;4964066;28;20044;-75
2023/11/07 08:31:32;;;;;;;0.00;0.00;;;;;;;8.81;100.00;99626.94;4952372;28;20061;-75
2023/11/07 08:33:59;;;;;;;0.00;0.00;;;;;;;9.03;98.31;99623.09;4952389;28;20034;-76
2023/11/07 08:36:24;;;;;;;0.10;0.10;;;;;;;8.59;97.90;99623.69;4966626;28;20037;-75
2023/11/07 08:38:50;;;;;;;0.00;0.00;;;;;;;9.54;100.00;99628.41;4950359;28;20081;-76
2023/11/07 08:41:15;;;;;;;0.00;0.00;;;;;;;11.93;88.83;99629.75;4983809;28;20081;-76
2023/11/07 08:43:40;;;;;;;0.00;0.00;;;;;;;14.05;75.79;99635.16;4954156;28;20033;-75
2023/11/07 08:46:06;;;;;;;0.00;0.00;;;;;;;15.97;65.53;99646.53;4943084;28;20034;-75
2023/11/07 08:48:34;;;;;;;0.00;0.00;;;;;;;17.14;59.26;99638.41;4975163;28;20022;-76
2023/11/07 08:51:01;;;;;;;0.00;0.00;;;;;;;18.36;53.96;99650.03;4985797;28;20188;-74
2023/11/07 08:53:26;;;;;;;0.00;0.00;;;;;;;19.12;49.88;99639.75;4982174;28;20559;-75
2023/11/07 08:55:52;;;;;;;0.00;0.00;;;;;;;19.79;48.84;99647.94;4954501;28;20121;-76
2023/11/07 08:58:18;;;;;;;0.00;0.00;;;;;;;20.48;46.58;99645.25;4980256;28;20069;-75
2023/11/07 09:00:44;;;;;;;0.00;0.00;;;;;;;21.36;44.30;99648.13;4978729;28;20050;-75
2023/11/07 09:03:10;;;;;;;0.00;0.00;;;;;;;22.22;43.17;99654.13;4959253;28;20088;-75
2023/11/07 09:05:36;;;;;;;0.00;0.00;;;;;;;22.55;42.00;99656.47;4951126;28;20105;-75
2023/11/07 09:08:04;;;;;;;0.00;0.00;;;;;;;23.26;41.18;99661.06;4977923;28;20109;-76
2023/11/07 09:10:33;;;;;;;0.00;0.00;;;;;;;24.01;38.65;99667.91;4963126;28;20020;-74
2023/11/07 09:12:59;;;;;;;0.00;0.00;;;;;;;23.74;38.24;99671.84;4970551;28;20364;-76
2023/11/07 09:15:25;;;;;;;0.00;0.00;;;;;;;23.92;37.70;99670.19;4969193;28;20022;-75
2023/11/07 09:17:51;;;;;;;0.00;0.00;;;;;;;24.13;36.44;99680.84;4970253;28;20038;-76
2023/11/07 09:20:18;;;;;;;0.00;0.00;;;;;;;25.07;35.89;99677.31;4983968;28;20425;-77
2023/11/07 09:22:44;;;;;;;0.00;0.00;;;;;;;24.71;34.40;99673.31;4967384;28;20113;-76
2023/11/07 09:25:11;;;;;;;0.00;0.00;;;;;;;25.06;35.01;99680.50;4968085;28;20022;-75
2023/11/07 09:27:37;;;;;;;0.00;0.00;;;;;;;25.96;33.42;99673.75;4945082;28;20029;-75
2023/11/07 09:30:10;;;;;;;0.00;0.00;;;;;;;25.46;32.71;99684.53;4969276;28;20026;-76
2023/11/07 09:32:37;;;;;;;0.00;0.00;;;;;;;25.60;33.19;99693.03;4963729;28;20044;-75
2023/11/07 09:35:06;;;;;;;0.00;0.00;;;;;;;26.44;31.27;99694.47;4986596;28;20627;-75
2023/11/07 09:37:39;;;;;;;0.00;0.00;;;;;;;26.78;31.09;99700.69;4950030;28;20436;-75
2023/11/07 09:40:10;;;;;;;0.00;0.00;;;;;;;26.27;31.17;99691.19;4987041;28;20049;-76
2023/11/07 09:42:44;;;;;;;0.00;0.00;;;;;;;26.65;31.39;99688.97;4984644;28;20502;-75
2023/11/07 09:45:11;;;;;;;;;;;;;;;27.72;30.69;99695.31;4985330;28;20490;-74
2023/11/07 09:47:38;;;;;;;0.00;0.00;;;;;;;27.78;29.99;99696.50;4958430;28;20004;-75
2023/11/07 09:50:07;;;;;;;0.00;0.00;;;;;;;27.78;29.03;99696.50;4948406;28;20484;-75
2023/11/07 09:52:34;;;;;;;0.00;0.00;;;;;;;28.23;28.05;99710.16;4960944;28;20035;-74
2023/11/07 09:55:06;;;;;;;0.00;0.00;;;;;;;26.94;29.31;99705.97;4979382;28;20851;-76
2023/11/07 09:57:35;;;;;;;0.00;0.00;;;;;;;25.64;31.73;99714.66;4961774;28;20465;-75
2023/11/07 10:00:02;;;;;;;0.00;0.00;;;;;;;26.66;30.79;99717.81;4959778;28;21544;-74
2023/11/07 10:02:28;;;;;;;0.00;0.00;;;;;;;27.09;29.95;99725.66;4966486;28;20097;-74
2023/11/07 10:04:55;;;;;;;0.00;0.00;;;;;;;27.73;29.50;99738.22;4934266;28;20097;-75
2023/11/07 10:07:21;;;;;;;0.00;0.00;;;;;;;28.28;28.72;99731.44;4932158;28;20023;-75
2023/11/07 10:09:47;;;;;;;0.00;0.00;;;;;;;28.97;27.80;99732.88;4947565;28;20117;-76
2023/11/07 10:12:18;;;;;;;0.00;0.00;;;;;;;30.11;26.84;99739.00;4959920;28;20109;-76
2023/11/07 10:14:43;;;;;;;0.00;0.00;;;;;;;31.55;24.66;99736.50;4986972;28;20034;-77
2023/11/07 10:17:20;;;;;;;0.00;0.00;;;;;;;30.47;25.18;99743.50;4961385;28;20515;-76
2023/11/07 10:19:46;;;;;;;0.00;0.00;;;;;;;29.39;25.52;99739.47;4985762;28;20053;-76
2023/11/07 10:22:12;;;;;;;0.00;0.00;;;;;;;25.79;30.09;99739.59;4948162;28;20122;-77
2023/11/07 10:24:46;;;;;;;0.00;0.00;;;;;;;24.61;32.57;99746.63;4966519;28;20026;-75
2023/11/07 10:27:12;;;;;;;0.00;0.00;;;;;;;24.03;33.53;99737.34;4966210;28;20037;-76
2023/11/07 10:29:53;;;;;;;0.00;0.00;;;;;;;24.46;33.52;99740.81;4950893;28;20094;-76
2023/11/07 10:32:19;;;;;;;0.00;0.00;;;;;;;22.69;35.26;99747.91;4965595;28;20026;-76
2023/11/07 10:35:00;;;;;;;0.00;0.00;;;;;;;20.65;38.88;99746.94;4934391;28;20034;-76
2023/11/07 10:37:32;;;;;;;0.00;0.00;;;;;;;19.60;42.16;99740.78;4966213;28;20104;-75
2023/11/07 10:39:58;;;;;;;0.00;0.00;;;;;;;21.01;40.01;99762.72;4982399;28;20487;-75
2023/11/07 10:42:29;;;;;;;0.00;0.00;;;;;;;21.32;39.42;99758.44;4963617;28;20034;-75
2023/11/07 10:45:00;;;;;;;0.00;0.00;;;;;;;20.20;40.79;99740.41;4964244;28;20093;-76
2023/11/07 10:47:35;;;;;;;0.00;0.00;;;;;;;19.70;43.56;99736.75;4963015;28;20387;-75
2023/11/07 10:50:02;;;;;;;0.00;0.00;;;;;;;20.33;41.61;99742.00;4964617;28;20030;-75
2023/11/07 10:52:27;;;;;;;0.00;0.00;;;;;;;19.23;43.62;99735.16;4964838;28;20026;-75
2023/11/07 10:54:53;;;;;;;0.00;0.00;;;;;;;17.93;45.82;99730.19;4963991;28;20026;-75
2023/11/07 10:57:22;;;;;;;0.00;0.00;;;;;;;17.04;48.87;99738.19;4956262;28;20038;-75
2023/11/07 10:59:49;;;;;;;0.00;0.00;;;;;;;16.43;50.46;99725.16;4961683;28;20030;-76
2023/11/07 11:02:17;;;;;;;0.00;0.00;;;;;;;18.54;49.86;99723.47;4963689;28;20050;-75
2023/11/07 11:04:46;;;;;;;0.00;0.00;;;;;;;23.68;39.42;99727.16;4946404;28;20050;-75
2023/11/07 11:07:13;;;;;;;0.00;0.00;;;;;;;24.14;36.10;99727.16;4964791;28;20486;-75
2023/11/07 11:09:41;;;;;;;0.00;0.00;;;;;;;22.53;38.20;99730.44;4966740;28;20043;-74
2023/11/07 11:12:08;;;;;;;0.00;0.00;;;;;;;21.87;39.06;99732.84;4946349;28;20030;-76
2023/11/07 11:14:33;;;;;;;0.00;0.00;;;;;;;20.37;41.33;99731.81;4953217;28;20473;-75
2023/11/07 11:17:07;;;;;;;0.00;0.00;;;;;;;22.08;41.29;99725.03;4946798;28;20026;-75
2023/11/07 11:19:45;;;;;;;0.00;0.00;;;;;;;22.06;38.82;99735.69;4966422;28;20027;-76
2023/11/07 11:22:26;;;;;;;0.00;0.00;;;;;;;19.74;42.02;99731.31;4961493;28;20627;-75
2023/11/07 11:25:13;;;;;;;0.00;0.00;;;;;;;17.73;46.18;99719.84;4984361;28;20058;-76
2023/11/07 11:27:55;;;;;;;0.00;0.00;;;;;;;15.97;50.58;99729.25;4982200;28;20522;-76
2023/11/07 11:30:53;;;;;;;0.00;0.00;;;;;;;17.14;52.25;99732.31;4960743;28;20034;-76
2023/11/07 11:33:25;;;;;;;0.00;0.00;;;;;;;20.00;44.07;99722.72;4976704;28;20613;-76
2023/11/07 11:35:52;;;;;;;0.00;0.00;;;;;;;18.88;44.52;99723.56;4966000;28;20838;-76